createdAt,value
2023-02-11T00:01:34.386Z,35.90
2023-02-11T00:04:02.074Z,31.50
2023-02-11T00:06:31.014Z,31.67
2023-02-11T00:08:57.945Z,35.15
2023-02-11T00:11:30.146Z,33.30
2023-02-11T00:16:25.937Z,40.22
2023-02-11T00:18:54.062Z,34.28
2023-02-11T00:21:25.407Z,31.35
2023-02-11T00:23:53.160Z,34.63
2023-02-11T00:26:26.677Z,35.97
2023-02-11T00:28:53.902Z,30.80
2023-02-11T00:31:23.009Z,33.50
2023-02-11T00:33:50.133Z,35.63
2023-02-11T00:36:23.656Z,33.63
2023-02-11T00:38:53.398Z,37.60
2023-02-11T00:41:21.755Z,38.25
2023-02-11T00:43:49.669Z,33.65
2023-02-11T00:46:17.249Z,40.13
2023-02-11T00:48:44.157Z,34.15
2023-02-11T00:51:11.397Z,33.75
2023-02-11T00:53:38.624Z,30.30
2023-02-11T00:56:06.007Z,41.28
2023-02-11T00:58:33.058Z,34.72
2023-02-11T01:01:00.209Z,36.53
2023-02-11T01:03:27.170Z,34.70
2023-02-11T01:05:54.293Z,40.38
2023-02-11T01:08:21.344Z,38.97
2023-02-11T01:11:01.948Z,34.67
2023-02-11T01:13:30.694Z,36.85
2023-02-11T01:15:57.935Z,39.45
2023-02-11T01:18:25.399Z,38.40
2023-02-11T01:20:53.243Z,39.03
2023-02-11T01:23:20.577Z,35.35
2023-02-11T01:25:48.765Z,38.70
2023-02-11T01:28:22.979Z,37.55
2023-02-11T01:30:50.524Z,34.47
2023-02-11T01:33:18.004Z,42.55
2023-02-11T01:35:45.915Z,38.15
2023-02-11T01:38:22.659Z,40.72
2023-02-11T01:40:54.902Z,39.17
2023-02-11T01:45:49.324Z,35.28
2023-02-11T01:48:23.950Z,38.90
2023-02-11T01:50:56.654Z,36.78
2023-02-11T01:53:42.176Z,44.30
2023-02-11T01:56:29.072Z,36.20
2023-02-11T01:59:04.118Z,43.90
2023-02-11T02:01:34.472Z,40.25
2023-02-11T02:04:04.989Z,44.78
2023-02-11T02:06:44.764Z,42.50
2023-02-11T02:09:26.821Z,39.53
2023-02-11T02:11:53.876Z,40.95
2023-02-11T02:14:21.032Z,39.17
2023-02-11T02:16:48.077Z,38.17
2023-02-11T02:19:29.793Z,38.17
2023-02-11T02:22:42.233Z,43.05
2023-02-11T02:25:33.035Z,37.47
2023-02-11T02:28:37.098Z,42.17
2023-02-11T02:31:35.396Z,33.63
2023-02-11T02:34:24.511Z,33.47
2023-02-11T02:37:05.086Z,38.80
2023-02-11T02:39:36.215Z,38.22
2023-02-11T02:42:10.591Z,38.83
2023-02-11T02:44:39.580Z,36.05
2023-02-11T02:47:06.396Z,32.78
2023-02-11T02:49:33.173Z,38.17
2023-02-11T02:52:16.537Z,32.15
2023-02-11T02:55:01.436Z,33.20
2023-02-11T02:58:30.744Z,34.85
2023-02-11T03:01:24.613Z,31.83
2023-02-11T03:04:27.072Z,29.60
2023-02-11T03:07:12.040Z,31.70
2023-02-11T03:10:19.287Z,33.67
2023-02-11T03:12:47.801Z,39.35
2023-02-11T03:15:16.524Z,38.70
2023-02-11T03:17:48.228Z,31.80
2023-02-11T03:20:18.167Z,32.60
2023-02-11T03:23:02.959Z,31.50
2023-02-11T03:25:37.643Z,31.98
2023-02-11T03:28:17.848Z,36.45
2023-02-11T03:30:55.336Z,29.50
2023-02-11T03:33:52.099Z,35.13
2023-02-11T03:37:00.326Z,33.00
2023-02-11T03:39:37.215Z,34.97
2023-02-11T03:42:06.681Z,38.03
2023-02-11T03:44:44.344Z,34.33
2023-02-11T03:47:15.473Z,35.15
2023-02-11T03:49:43.792Z,32.10
2023-02-11T03:52:12.298Z,29.23
2023-02-11T03:54:42.574Z,36.30
2023-02-11T03:57:09.378Z,30.75
2023-02-11T03:59:59.183Z,26.58
2023-02-11T04:02:36.404Z,34.97
2023-02-11T04:05:05.280Z,33.30
2023-02-11T04:07:32.314Z,33.88
2023-02-11T04:09:59.820Z,29.65
2023-02-11T04:12:26.648Z,35.83
2023-02-11T04:14:53.461Z,33.95
2023-02-11T04:17:20.307Z,36.45
2023-02-11T04:19:47.280Z,34.28
2023-02-11T04:22:14.397Z,30.88
2023-02-11T04:24:41.411Z,30.33
2023-02-11T04:27:08.142Z,29.48
2023-02-11T04:29:35.091Z,36.47
2023-02-11T04:32:02.051Z,30.92
2023-02-11T04:34:28.892Z,38.35
2023-02-11T04:36:55.644Z,33.50
2023-02-11T04:39:22.425Z,29.90
2023-02-11T04:41:49.255Z,44.05
2023-02-11T04:44:16.123Z,33.70
2023-02-11T04:46:42.959Z,29.38
2023-02-11T04:49:13.896Z,39.03
2023-02-11T04:51:41.034Z,30.75
2023-02-11T04:54:08.086Z,36.25
2023-02-11T04:56:34.893Z,39.70
2023-02-11T04:59:01.854Z,36.03
2023-02-11T05:01:28.691Z,38.95
2023-02-11T05:03:55.722Z,45.10
2023-02-11T05:06:22.726Z,59.10
2023-02-11T05:08:49.668Z,31.70
2023-02-11T05:11:21.565Z,30.35
2023-02-11T05:13:48.860Z,28.85
2023-02-11T05:16:17.181Z,28.13
2023-02-11T05:18:45.320Z,33.85
2023-02-11T05:21:16.667Z,34.80
2023-02-11T05:23:44.045Z,33.37
2023-02-11T05:26:11.740Z,31.98
2023-02-11T05:28:39.141Z,35.53
2023-02-11T05:31:06.135Z,34.33
2023-02-11T05:33:33.397Z,32.05
2023-02-11T05:36:05.614Z,45.38
2023-02-11T06:02:47.052Z,33.67
2023-02-11T06:05:13.771Z,39.42
2023-02-11T06:07:40.519Z,43.13
2023-02-11T06:10:08.134Z,37.15
2023-02-11T06:12:36.196Z,41.90
2023-02-11T06:15:03.131Z,35.05
2023-02-11T06:17:33.582Z,33.63
2023-02-11T06:20:02.726Z,47.20
2023-02-11T06:22:29.677Z,35.35
2023-02-11T06:25:01.749Z,34.85
2023-02-11T06:27:29.752Z,37.85
2023-02-11T06:29:56.743Z,32.03
2023-02-11T06:32:42.622Z,44.88
2023-02-11T06:35:12.133Z,41.95
2023-02-11T06:37:40.355Z,37.72
2023-02-11T06:40:07.691Z,40.42
2023-02-11T06:42:36.012Z,32.65
2023-02-11T06:45:05.811Z,38.30
2023-02-11T06:47:32.533Z,42.80
2023-02-11T06:49:59.271Z,34.78
2023-02-11T06:52:26.113Z,39.15
2023-02-11T06:54:52.841Z,32.40
2023-02-11T06:57:19.611Z,36.08
2023-02-11T06:59:53.490Z,37.47
2023-02-11T07:02:21.129Z,38.92
2023-02-11T07:04:49.791Z,38.53
2023-02-11T07:07:16.510Z,37.10
2023-02-11T07:09:43.351Z,39.05
2023-02-11T07:12:10.658Z,38.50
2023-02-11T07:14:37.635Z,39.47
2023-02-11T07:17:04.753Z,43.15
2023-02-11T07:19:31.579Z,45.53
2023-02-11T07:21:58.355Z,45.13
2023-02-11T07:24:25.120Z,34.92
2023-02-11T07:26:53.258Z,38.33
2023-02-11T07:29:20.001Z,40.00
2023-02-11T07:31:46.794Z,47.05
2023-02-11T07:34:13.542Z,40.55
2023-02-11T07:36:40.468Z,39.08
2023-02-11T07:39:07.157Z,46.78
2023-02-11T07:41:37.780Z,46.60
2023-02-11T07:44:05.072Z,44.42
2023-02-11T07:46:32.738Z,47.25
2023-02-11T07:48:59.499Z,42.33
2023-02-11T07:51:30.460Z,44.75
2023-02-11T07:53:59.370Z,53.65
2023-02-11T07:56:27.041Z,47.38
2023-02-11T07:58:56.705Z,55.28
2023-02-11T08:01:28.244Z,46.08
2023-02-11T08:03:57.727Z,42.17
2023-02-11T08:06:27.680Z,60.83
2023-02-11T08:08:55.202Z,51.67
2023-02-11T08:11:28.242Z,47.85
2023-02-11T08:13:56.502Z,50.45
2023-02-11T08:16:26.021Z,43.17
2023-02-11T08:18:55.517Z,40.72
2023-02-11T08:21:22.302Z,45.05
2023-02-11T08:23:49.733Z,46.45
2023-02-11T08:26:22.890Z,51.63
2023-02-11T08:28:51.747Z,51.28
2023-02-11T08:31:41.450Z,47.42
2023-02-11T08:34:09.981Z,49.95
2023-02-11T08:36:38.960Z,54.97
2023-02-11T08:39:18.648Z,52.17
2023-02-11T08:41:54.099Z,53.55
2023-02-11T08:44:22.058Z,55.30
2023-02-11T08:46:50.095Z,50.45
2023-02-11T08:49:17.357Z,56.50
2023-02-11T08:51:44.934Z,45.92
2023-02-11T08:54:12.248Z,43.90
2023-02-11T08:56:39.519Z,57.38
2023-02-11T08:59:07.172Z,59.25
2023-02-11T09:01:34.045Z,57.13
2023-02-11T09:04:01.080Z,47.72
2023-02-11T09:06:29.011Z,56.25
2023-02-11T09:08:59.346Z,47.35
2023-02-11T09:11:31.652Z,56.17
2023-02-11T09:13:58.793Z,57.45
2023-02-11T09:16:29.358Z,57.65
2023-02-11T09:19:01.802Z,58.30
2023-02-11T09:21:29.484Z,51.67
2023-02-11T09:23:59.426Z,62.72
2023-02-11T09:26:30.022Z,67.82
2023-02-11T09:28:57.283Z,52.35
2023-02-11T09:31:27.216Z,56.05
2023-02-11T09:33:58.133Z,66.05
2023-02-11T09:36:29.380Z,65.25
2023-02-11T09:38:59.675Z,66.07
2023-02-11T09:41:32.713Z,53.13
2023-02-11T09:44:04.897Z,56.78
2023-02-11T09:49:50.697Z,54.55
2023-02-11T09:52:51.721Z,59.92
2023-02-11T09:55:36.477Z,55.40
2023-02-11T09:58:10.693Z,62.15
2023-02-11T10:00:45.269Z,62.13
2023-02-11T10:03:46.161Z,62.53
2023-02-11T10:06:35.951Z,60.22
2023-02-11T10:09:20.930Z,52.83
2023-02-11T10:12:09.429Z,56.25
2023-02-11T10:15:02.717Z,59.40
2023-02-11T10:17:48.027Z,54.92
2023-02-11T10:20:26.562Z,57.97
2023-02-11T10:22:58.924Z,64.65
2023-02-11T10:25:45.711Z,54.30
2023-02-11T10:28:24.918Z,55.75
2023-02-11T10:31:03.762Z,69.00
2023-02-11T10:34:03.158Z,57.35
2023-02-11T10:36:34.439Z,56.25
2023-02-11T10:39:12.147Z,56.47
2023-02-11T10:41:47.223Z,68.75
2023-02-11T10:44:39.211Z,57.50
2023-02-11T10:47:22.630Z,59.08
2023-02-11T10:49:49.970Z,53.42
2023-02-11T10:52:25.829Z,60.00
2023-02-11T10:55:03.144Z,61.92
2023-02-11T10:57:38.551Z,66.80
2023-02-11T11:00:26.309Z,57.47
2023-02-11T11:03:06.959Z,59.67
2023-02-11T11:05:45.859Z,56.25
2023-02-11T11:08:13.163Z,60.25
2023-02-11T11:10:43.904Z,58.05
2023-02-11T11:13:40.847Z,61.40
2023-02-11T11:16:09.546Z,56.17
2023-02-11T11:18:36.411Z,53.35
2023-02-11T11:21:07.750Z,53.47
2023-02-11T11:23:38.756Z,55.00
2023-02-11T11:26:12.072Z,64.43
2023-02-11T11:28:40.966Z,52.85
2023-02-11T11:31:35.501Z,55.92
2023-02-11T11:34:35.007Z,54.00
2023-02-11T11:37:31.128Z,64.90
2023-02-11T11:40:29.566Z,58.13
2023-02-11T11:43:14.593Z,51.85
2023-02-11T11:46:01.056Z,52.22
2023-02-11T11:48:43.049Z,45.53
2023-02-11T11:51:13.847Z,46.92
2023-02-11T11:53:45.935Z,54.72
2023-02-11T11:58:50.674Z,58.05
2023-02-11T12:01:35.609Z,62.08
2023-02-11T12:04:32.647Z,57.33
2023-02-11T12:07:20.566Z,59.92
2023-02-11T12:10:19.934Z,59.88
2023-02-11T12:13:26.393Z,61.53
2023-02-11T12:16:30.794Z,52.38
2023-02-11T12:19:38.673Z,55.72
2023-02-11T12:22:52.116Z,58.33
2023-02-11T12:25:57.123Z,56.08
2023-02-11T12:29:11.562Z,50.28
2023-02-11T12:31:56.429Z,54.38
2023-02-11T12:35:00.749Z,56.15
2023-02-11T12:38:20.061Z,53.70
2023-02-11T12:41:48.263Z,50.38
2023-02-11T12:44:47.389Z,58.55
2023-02-11T12:47:25.287Z,53.67
2023-02-11T12:50:22.142Z,53.28
2023-02-11T12:53:41.514Z,55.53
2023-02-11T12:56:28.356Z,52.03
2023-02-11T12:58:59.245Z,62.63
2023-02-11T13:01:42.599Z,54.22
2023-02-11T13:04:13.033Z,52.90
2023-02-11T13:06:51.419Z,53.35
2023-02-11T13:09:40.759Z,56.00
2023-02-11T13:12:30.228Z,54.13
2023-02-11T13:15:03.993Z,55.90
2023-02-11T13:17:57.048Z,63.75
2023-02-11T13:20:41.461Z,53.40
2023-02-11T13:23:31.722Z,49.58
2023-02-11T13:26:13.028Z,49.42
2023-02-11T13:29:05.992Z,47.85
2023-02-11T13:31:32.945Z,53.10
2023-02-11T13:33:59.759Z,57.40
2023-02-11T13:36:32.762Z,57.70
2023-02-11T13:39:06.167Z,51.13
2023-02-11T13:41:38.563Z,49.38
2023-02-11T13:44:11.529Z,57.40
2023-02-11T13:46:59.628Z,52.03
2023-02-11T13:49:40.589Z,46.20
2023-02-11T13:52:28.460Z,48.92
2023-02-11T13:55:01.671Z,46.28
2023-02-11T13:57:34.011Z,58.40
2023-02-11T14:00:35.841Z,53.20
2023-02-11T14:03:32.570Z,56.53
2023-02-11T14:06:26.633Z,54.45
2023-02-11T14:09:07.945Z,51.85
2023-02-11T14:11:40.634Z,51.10
2023-02-11T14:14:28.608Z,51.95
2023-02-11T14:17:01.145Z,50.22
2023-02-11T14:19:39.718Z,52.90
2023-02-11T14:22:49.343Z,60.78
2023-02-11T14:25:34.616Z,52.03
2023-02-11T14:28:19.057Z,47.20
2023-02-11T14:31:10.691Z,49.05
2023-02-11T14:33:50.600Z,52.90
2023-02-11T14:36:43.756Z,50.00
2023-02-11T14:39:34.821Z,57.03
2023-02-11T14:42:03.729Z,50.65
2023-02-11T14:44:33.037Z,55.53
2023-02-11T14:47:00.472Z,56.92
2023-02-11T14:49:39.276Z,50.42
2023-02-11T14:52:28.815Z,48.25
2023-02-11T14:55:37.975Z,50.28
2023-02-11T14:58:14.086Z,55.80
2023-02-11T15:01:00.794Z,53.45
2023-02-11T15:03:39.421Z,48.80
2023-02-11T15:06:08.339Z,50.28
2023-02-11T15:08:38.366Z,59.72
2023-02-11T15:11:12.542Z,56.33
2023-02-11T15:13:47.256Z,57.88
2023-02-11T15:16:21.805Z,58.17
2023-02-11T15:18:56.333Z,57.78
2023-02-11T15:21:33.330Z,58.65
2023-02-11T15:24:03.200Z,57.75
2023-02-11T15:26:30.445Z,53.85
2023-02-11T15:28:57.355Z,57.80
2023-02-11T15:31:27.739Z,54.88
2023-02-11T15:33:55.315Z,52.30
2023-02-11T15:36:34.262Z,59.00
2023-02-11T15:39:19.317Z,60.15
2023-02-11T15:41:46.166Z,57.67
2023-02-11T15:44:32.140Z,62.10
2023-02-11T15:46:59.252Z,58.45
2023-02-11T15:49:26.642Z,55.35
2023-02-11T15:51:57.157Z,55.70
2023-02-11T15:54:29.354Z,56.67
2023-02-11T15:57:06.958Z,57.55
2023-02-11T15:59:41.059Z,60.53
2023-02-11T16:02:20.292Z,58.53
2023-02-11T16:04:57.675Z,58.47
2023-02-11T16:07:57.733Z,55.88
2023-02-11T16:10:35.221Z,52.67
2023-02-11T16:13:08.110Z,59.83
2023-02-11T16:15:34.930Z,52.10
2023-02-11T16:18:04.519Z,53.85
2023-02-11T16:20:31.647Z,52.97
2023-02-11T16:23:06.753Z,51.50
2023-02-11T16:25:35.506Z,54.72
2023-02-11T16:28:02.657Z,57.83
2023-02-11T16:30:37.907Z,51.22
2023-02-11T16:33:05.578Z,56.55
2023-02-11T16:35:32.694Z,56.17
2023-02-11T16:37:59.422Z,51.78
2023-02-11T16:40:26.194Z,53.97
2023-02-11T16:42:53.440Z,52.45
2023-02-11T16:45:20.354Z,55.75
2023-02-11T16:47:47.369Z,54.22
2023-02-11T16:50:25.338Z,48.83
2023-02-11T16:52:52.691Z,49.03
2023-02-11T16:55:21.893Z,55.92
2023-02-11T16:57:49.356Z,53.38
2023-02-11T17:00:17.582Z,62.55
2023-02-11T17:02:44.485Z,61.00
2023-02-11T17:05:22.777Z,50.92
2023-02-11T17:07:49.794Z,57.20
2023-02-11T17:10:20.137Z,57.28
2023-02-11T17:12:48.199Z,64.72
2023-02-11T17:15:15.069Z,63.72
2023-02-11T17:17:41.844Z,60.28
2023-02-11T17:20:12.499Z,58.45
2023-02-11T17:22:39.549Z,57.05
2023-02-11T17:25:06.566Z,54.35
2023-02-11T17:27:34.297Z,56.78
2023-02-11T17:30:01.124Z,64.28
2023-02-11T17:32:27.884Z,61.33
2023-02-11T17:34:54.863Z,60.55
2023-02-11T17:37:22.290Z,58.00
2023-02-11T17:39:50.331Z,54.08
2023-02-11T17:42:19.114Z,59.78
2023-02-11T17:44:46.608Z,61.72
2023-02-11T17:47:13.683Z,65.88
2023-02-11T17:49:44.664Z,55.75
2023-02-11T17:52:11.421Z,58.83
2023-02-11T17:54:38.598Z,58.45
2023-02-11T17:57:17.566Z,63.75
2023-02-11T17:59:44.380Z,63.58
2023-02-11T18:02:12.887Z,62.63
2023-02-11T18:04:40.405Z,64.28
2023-02-11T18:07:07.591Z,64.75
2023-02-11T18:09:41.473Z,61.95
2023-02-11T18:12:09.071Z,66.47
2023-02-11T18:14:37.971Z,59.45
2023-02-11T18:17:06.092Z,58.30
2023-02-11T18:19:35.119Z,64.20
2023-02-11T18:22:04.154Z,67.43
2023-02-11T18:24:31.446Z,60.95
2023-02-11T18:26:58.448Z,63.42
2023-02-11T18:29:25.386Z,66.82
2023-02-11T18:31:56.663Z,64.63
2023-02-11T18:34:24.731Z,63.92
2023-02-11T18:36:52.057Z,66.88
2023-02-11T18:39:24.073Z,69.20
2023-02-11T18:41:54.401Z,64.70
2023-02-11T18:44:23.849Z,70.05
2023-02-11T18:46:51.983Z,64.72
2023-02-11T18:49:19.912Z,64.63
2023-02-11T18:51:46.717Z,71.72
2023-02-11T18:54:13.759Z,68.78
2023-02-11T18:56:40.974Z,73.47
2023-02-11T18:59:07.989Z,71.88
2023-02-11T19:01:35.460Z,67.70
2023-02-11T19:04:04.716Z,67.82
2023-02-11T19:06:36.236Z,73.47
2023-02-11T19:09:11.118Z,66.88
2023-02-11T19:11:49.813Z,75.60
2023-02-11T19:14:36.672Z,69.78
2023-02-11T19:17:06.936Z,62.47
2023-02-11T19:19:35.988Z,59.90
2023-02-11T19:22:08.530Z,75.90
2023-02-11T19:24:37.581Z,69.97
2023-02-11T19:27:05.681Z,72.22
2023-02-11T19:29:34.958Z,70.07
2023-02-11T19:32:04.382Z,73.25
2023-02-11T19:34:31.354Z,70.45
2023-02-11T19:37:00.765Z,73.25
2023-02-11T19:39:27.682Z,77.43
2023-02-11T19:41:54.451Z,76.28
2023-02-11T19:44:21.431Z,69.93
2023-02-11T19:46:50.108Z,71.60
2023-02-11T19:49:22.699Z,75.88
2023-02-11T19:51:50.953Z,74.85
2023-02-11T19:54:19.739Z,71.25
2023-02-11T19:56:47.332Z,66.85
2023-02-11T19:59:15.642Z,69.95
2023-02-11T20:01:42.760Z,76.68
2023-02-11T20:04:09.621Z,69.95
2023-02-11T20:06:36.539Z,70.25
2023-02-11T20:09:11.160Z,70.88
2023-02-11T20:11:39.557Z,71.57
2023-02-11T20:14:07.085Z,68.05
2023-02-11T20:16:47.665Z,71.60
2023-02-11T20:19:19.045Z,76.90
2023-02-11T20:21:48.024Z,72.75
2023-02-11T20:24:19.702Z,71.80
2023-02-11T20:26:48.337Z,60.42
2023-02-11T20:29:17.180Z,64.30
2023-02-11T20:31:44.271Z,66.82
2023-02-11T20:34:12.212Z,70.20
2023-02-11T20:36:40.383Z,67.18
2023-02-11T20:39:07.830Z,62.72
2023-02-11T20:41:39.617Z,72.05
2023-02-11T20:44:08.260Z,63.90
2023-02-11T20:46:40.064Z,67.05
2023-02-11T20:49:08.651Z,67.15
2023-02-11T20:51:37.568Z,70.93
2023-02-11T20:54:06.030Z,71.38
2023-02-11T20:56:36.494Z,62.22
2023-02-11T20:59:04.590Z,68.80
2023-02-11T21:01:35.299Z,67.20
2023-02-11T21:04:11.910Z,77.32
2023-02-11T21:06:49.344Z,69.40
2023-02-11T21:09:20.449Z,67.65
2023-02-11T21:11:58.339Z,68.43
2023-02-11T21:14:28.241Z,68.57
2023-02-11T21:16:55.260Z,73.75
2023-02-11T21:19:22.137Z,67.05
2023-02-11T21:21:49.121Z,69.13
2023-02-11T21:24:16.089Z,59.60
2023-02-11T21:26:42.962Z,60.78
2023-02-11T21:29:11.492Z,65.75
2023-02-11T21:31:39.093Z,61.75
2023-02-11T21:34:06.873Z,62.85
2023-02-11T21:36:33.886Z,69.05
2023-02-11T21:39:02.002Z,66.80
2023-02-11T21:41:29.200Z,63.42
2023-02-11T21:43:56.552Z,68.70
2023-02-11T21:46:23.766Z,66.68
2023-02-11T21:48:51.077Z,67.25
2023-02-11T21:51:22.806Z,68.80
2023-02-11T21:53:57.938Z,68.38
2023-02-11T21:56:27.946Z,70.95
2023-02-11T21:58:57.300Z,72.13
2023-02-11T22:01:33.000Z,64.40
2023-02-11T22:04:00.052Z,66.00
2023-02-11T22:06:31.423Z,65.32
2023-02-11T22:09:01.341Z,70.40
2023-02-11T22:11:28.126Z,62.88
2023-02-11T22:13:56.514Z,68.70
2023-02-11T22:16:23.943Z,65.05
2023-02-11T22:18:51.419Z,60.53
2023-02-11T22:21:21.807Z,68.07
2023-02-11T22:23:50.031Z,71.40
2023-02-11T22:26:23.127Z,67.22
2023-02-11T22:28:51.354Z,75.65
2023-02-11T22:31:22.862Z,65.32
2023-02-11T22:33:50.220Z,64.80
2023-02-11T22:36:21.197Z,70.22
2023-02-11T22:38:48.996Z,71.47
2023-02-11T22:41:16.301Z,71.13
2023-02-11T22:43:44.383Z,77.95
2023-02-11T22:46:14.685Z,74.68
2023-02-11T22:48:41.851Z,68.72
2023-02-11T22:51:29.763Z,75.35
2023-02-11T22:54:03.319Z,73.32
2023-02-11T22:56:33.445Z,71.47
2023-02-11T22:59:04.439Z,73.72
2023-02-11T23:01:31.774Z,71.22
2023-02-11T23:04:00.931Z,70.55
2023-02-11T23:06:27.741Z,70.00
2023-02-11T23:08:54.715Z,82.25
2023-02-11T23:11:25.306Z,78.15
2023-02-11T23:13:53.392Z,77.85
2023-02-11T23:16:27.300Z,85.13
2023-02-11T23:18:55.106Z,78.38
2023-02-11T23:21:27.195Z,77.38
2023-02-11T23:26:29.265Z,70.03
2023-02-11T23:28:57.736Z,71.07
2023-02-11T23:31:39.496Z,74.88
2023-02-11T23:34:08.246Z,77.78
2023-02-11T23:36:35.523Z,69.88
2023-02-11T23:39:02.648Z,68.28
2023-02-11T23:41:29.467Z,71.15
2023-02-11T23:43:57.867Z,61.67
2023-02-11T23:46:26.730Z,63.92
2023-02-11T23:48:53.948Z,64.32
2023-02-11T23:51:21.100Z,64.55
2023-02-11T23:53:51.620Z,59.38
2023-02-11T23:56:27.177Z,57.88
2023-02-11T23:58:57.588Z,57.30
